Time;durP1;ratioP1;P1;durP2;ratioP2;P2;SDS_P1;SDS_P2;PMS_P1;PMS_P2;Temp;Humidity;BMP_temperature;BMP_pressure;BME280_temperature;BME280_humidity;BME280_pressure;Samples;Min_cycle;Max_cycle;Signal;HPM_P1;HPM_P2
2023/04/20 00:01:53;;;;;;;10.63;8.90;;;5.40;99.90;;;;;;5050795;28;20194;-84
2023/04/20 00:04:22;;;;;;;11.03;9.57;;;5.20;99.90;;;;;;5025109;28;20277;-87
2023/04/20 00:06:50;;;;;;;11.40;9.87;;;5.20;99.90;;;;;;5049947;28;20611;-86
2023/04/20 00:09:17;;;;;;;13.77;10.90;;;5.20;99.90;;;;;;5054833;28;20210;-86
2023/04/20 00:11:44;;;;;;;18.10;12.57;;;5.10;99.90;;;;;;5053118;28;20206;-86
2023/04/20 00:14:12;;;;;;;12.30;10.70;;;5.20;99.90;;;;;;5071602;28;20288;-86
2023/04/20 00:16:39;;;;;;;14.38;11.90;;;5.30;99.90;;;;;;5075333;28;20302;-87
2023/04/20 00:19:07;;;;;;;23.00;18.37;;;5.30;99.90;;;;;;5067391;28;20232;-86
2023/04/20 00:21:37;;;;;;;15.13;12.20;;;5.50;99.90;;;;;;5046455;28;20201;-86
2023/04/20 00:24:05;;;;;;;14.30;11.20;;;5.50;99.90;;;;;;5029158;28;20665;-86
2023/04/20 00:26:31;;;;;;;13.90;11.45;;;5.50;99.90;;;;;;5032206;28;20710;-86
2023/04/20 00:28:58;;;;;;;14.98;10.98;;;5.60;99.90;;;;;;5048267;28;20213;-86
2023/04/20 00:31:27;;;;;;;14.07;11.32;;;5.50;99.90;;;;;;5039516;28;20194;-87
2023/04/20 00:33:54;;;;;;;13.05;11.15;;;5.40;99.90;;;;;;5051588;28;20640;-86
2023/04/20 00:36:21;;;;;;;13.95;11.38;;;5.40;99.90;;;;;;5042045;28;20217;-86
2023/04/20 00:38:47;;;;;;;13.82;11.65;;;5.30;99.90;;;;;;5053312;28;20284;-86
2023/04/20 00:41:14;;;;;;;15.73;10.68;;;5.30;99.90;;;;;;5051615;28;20222;-86
2023/04/20 00:43:50;;;;;;;14.68;11.27;;;5.20;99.90;;;;;;5047802;28;20203;-86
2023/04/20 00:46:17;;;;;;;14.47;11.50;;;5.20;99.90;;;;;;5049454;28;20778;-86
2023/04/20 00:48:46;;;;;;;12.83;10.47;;;5.20;99.90;;;;;;5047086;28;20221;-86
2023/04/20 00:51:13;;;;;;;14.30;10.70;;;5.20;99.90;;;;;;5050508;28;20536;-86
2023/04/20 00:53:41;;;;;;;13.20;10.80;;;5.20;99.90;;;;;;5045191;28;20194;-86
2023/04/20 00:56:08;;;;;;;14.65;10.70;;;5.20;99.90;;;;;;5050742;28;20206;-84
2023/04/20 00:58:35;;;;;;;12.17;10.50;;;5.20;99.90;;;;;;5050142;28;20198;-86
2023/04/20 01:01:02;;;;;;;12.50;9.90;;;5.20;99.90;;;;;;5053835;28;20284;-86
2023/04/20 01:03:29;;;;;;;11.13;9.73;;;5.20;99.90;;;;;;5040831;28;20213;-84
2023/04/20 01:05:57;;;;;;;12.47;10.13;;;5.10;99.90;;;;;;5044114;28;20202;-86
2023/04/20 01:08:26;;;;;;;11.17;9.97;;;5.20;99.90;;;;;;5046214;28;20197;-86
2023/04/20 01:10:53;;;;;;;12.90;10.03;;;5.20;99.90;;;;;;5034487;28;20248;-84
2023/04/20 01:13:20;;;;;;;14.83;10.50;;;5.20;99.90;;;;;;5047210;28;20203;-87
2023/04/20 01:15:47;;;;;;;14.50;10.33;;;5.20;99.90;;;;;;5030202;28;20201;-84
2023/04/20 01:18:14;;;;;;;12.23;10.00;;;5.20;99.90;;;;;;5053368;28;20233;-84
2023/04/20 01:20:41;;;;;;;11.30;9.47;;;5.10;99.90;;;;;;5048387;28;20226;-84
2023/04/20 01:23:09;;;;;;;12.83;10.50;;;5.10;99.90;;;;;;5044367;28;20218;-83
2023/04/20 01:25:36;;;;;;;13.75;11.05;;;5.10;99.90;;;;;;5049793;28;20752;-84
2023/04/20 01:28:03;;;;;;;13.63;11.00;;;5.00;99.90;;;;;;5046571;28;20191;-86
2023/04/20 01:30:30;;;;;;;13.43;10.40;;;5.10;99.90;;;;;;5050898;28;20229;-83
2023/04/20 01:32:58;;;;;;;13.13;10.03;;;5.20;99.90;;;;;;5051635;28;20427;-83
2023/04/20 01:35:25;;;;;;;12.03;9.50;;;5.20;99.90;;;;;;5040829;28;20198;-84
2023/04/20 01:37:52;;;;;;;11.10;9.57;;;5.10;99.90;;;;;;5034277;28;20248;-84
2023/04/20 01:40:20;;;;;;;11.70;9.47;;;5.10;99.90;;;;;;5049266;28;20214;-84
2023/04/20 01:42:47;;;;;;;10.57;9.03;;;5.10;99.90;;;;;;5049893;28;20645;-85
2023/04/20 01:45:14;;;;;;;10.77;9.20;;;5.10;99.90;;;;;;5049401;28;20198;-85
2023/04/20 01:47:41;;;;;;;11.67;9.50;;;5.10;99.90;;;;;;5049192;28;20202;-85
2023/04/20 01:50:08;;;;;;;10.40;9.13;;;5.10;99.90;;;;;;5031661;28;20573;-84
2023/04/20 01:52:35;;;;;;;11.17;8.90;;;5.00;99.90;;;;;;5052596;28;20194;-85
2023/04/20 01:55:02;;;;;;;10.03;8.43;;;5.10;99.90;;;;;;5027567;28;20202;-84
2023/04/20 01:57:30;;;;;;;10.40;8.00;;;5.10;99.90;;;;;;5042494;28;20201;-83
2023/04/20 01:59:57;;;;;;;9.67;7.90;;;5.00;99.90;;;;;;5046024;28;20691;-83
2023/04/20 02:02:24;;;;;;;9.53;7.83;;;5.10;99.90;;;;;;5047680;28;20205;-85
2023/04/20 02:04:52;;;;;;;7.80;6.00;;;5.10;99.90;;;;;;5046694;28;20190;-84
2023/04/20 02:07:18;;;;;;;8.43;7.13;;;5.10;99.90;;;;;;5026651;28;20206;-84
2023/04/20 02:09:45;;;;;;;7.73;6.67;;;5.10;99.90;;;;;;5046107;28;20647;-84
2023/04/20 02:12:12;;;;;;;7.53;6.37;;;5.10;99.90;;;;;;5042542;28;20202;-84
2023/04/20 02:14:40;;;;;;;7.73;6.47;;;5.00;99.90;;;;;;5029572;28;20228;-84
2023/04/20 02:17:07;;;;;;;7.53;6.23;;;5.00;99.90;;;;;;5039247;28;20554;-84
2023/04/20 02:19:35;;;;;;;8.60;6.83;;;5.00;99.90;;;;;;5040917;28;20241;-83
2023/04/20 02:22:01;;;;;;;9.73;6.80;;;4.90;99.90;;;;;;5043044;28;20201;-83
2023/04/20 02:24:28;;;;;;;6.33;5.53;;;5.00;99.90;;;;;;5045714;28;20230;-84
2023/04/20 02:26:55;;;;;;;9.13;6.13;;;5.00;99.90;;;;;;5046051;28;20202;-83
2023/04/20 02:29:22;;;;;;;6.70;5.80;;;5.00;99.90;;;;;;5047020;28;20660;-84
2023/04/20 02:31:50;;;;;;;6.60;5.17;;;5.10;99.90;;;;;;5047570;28;20210;-83
2023/04/20 02:34:18;;;;;;;5.43;4.83;;;5.10;99.90;;;;;;5039815;28;20198;-84
2023/04/20 02:36:45;;;;;;;6.67;5.30;;;5.10;99.90;;;;;;5039210;28;20672;-84
2023/04/20 02:39:11;;;;;;;6.10;5.17;;;5.10;99.90;;;;;;5041420;28;20283;-86
2023/04/20 02:41:38;;;;;;;6.57;5.30;;;5.00;99.90;;;;;;5038805;28;20236;-86
2023/04/20 02:44:05;;;;;;;8.47;5.17;;;4.90;99.90;;;;;;5041994;28;20199;-83
2023/04/20 02:46:32;;;;;;;7.07;5.27;;;5.00;99.90;;;;;;5047648;28;20204;-84
2023/04/20 02:49:02;;;;;;;6.87;5.40;;;4.90;99.90;;;;;;5050294;28;20212;-85
2023/04/20 02:51:29;;;;;;;6.37;5.77;;;4.90;99.90;;;;;;5043033;28;20646;-87
2023/04/20 02:53:56;;;;;;;6.20;5.43;;;4.90;99.90;;;;;;5040092;28;20202;-85
2023/04/20 02:56:23;;;;;;;7.07;5.90;;;4.90;99.90;;;;;;5045883;28;20221;-84
2023/04/20 02:58:51;;;;;;;6.37;5.17;;;4.90;99.90;;;;;;5043091;28;20213;-84
2023/04/20 03:01:20;;;;;;;7.53;5.97;;;5.00;99.90;;;;;;5048228;28;20225;-84
2023/04/20 03:03:48;;;;;;;7.00;6.00;;;5.00;99.90;;;;;;5039818;28;20190;-84
2023/04/20 03:08:58;;;;;;;6.97;5.80;;;5.00;99.90;;;;;;5041529;28;20197;-84
2023/04/20 03:11:25;;;;;;;6.43;5.50;;;5.10;99.90;;;;;;5026745;28;20299;-84
2023/04/20 03:13:52;;;;;;;8.33;5.70;;;5.10;99.90;;;;;;5033513;28;20557;-84
2023/04/20 03:16:20;;;;;;;7.20;6.10;;;5.10;99.90;;;;;;5013641;28;20202;-84
2023/04/20 03:18:47;;;;;;;8.23;6.20;;;5.00;99.90;;;;;;5035198;28;20694;-84
2023/04/20 03:21:17;;;;;;;8.90;6.63;;;5.00;99.90;;;;;;5031044;28;20222;-84
2023/04/20 03:23:44;;;;;;;9.67;6.23;;;5.00;99.90;;;;;;5049063;28;20206;-84
2023/04/20 03:26:12;;;;;;;10.17;7.07;;;5.00;99.90;;;;;;5032341;28;20198;-84
2023/04/20 03:28:40;;;;;;;9.20;7.23;;;5.00;99.90;;;;;;5049635;28;20214;-84
2023/04/20 03:31:07;;;;;;;9.97;7.20;;;5.00;99.90;;;;;;5025959;28;20230;-84
2023/04/20 03:33:34;;;;;;;8.90;7.57;;;5.00;99.90;;;;;;5052013;28;20204;-84
2023/04/20 03:36:00;;;;;;;9.03;7.77;;;5.00;99.90;;;;;;5051666;28;20204;-84
2023/04/20 03:38:31;;;;;;;9.67;7.83;;;5.00;99.90;;;;;;5046566;28;20196;-84
2023/04/20 03:40:57;;;;;;;10.90;8.53;;;5.00;99.90;;;;;;5042830;28;20233;-84
2023/04/20 03:43:24;;;;;;;9.40;8.10;;;5.00;99.90;;;;;;5063175;28;20194;-83
2023/04/20 03:45:51;;;;;;;10.73;8.50;;;5.00;99.90;;;;;;5048795;28;20205;-85
2023/04/20 03:48:18;;;;;;;11.10;8.33;;;5.00;99.90;;;;;;5051810;28;20207;-84
2023/04/20 03:50:45;;;;;;;9.70;7.67;;;5.00;99.90;;;;;;5050521;28;20194;-86
2023/04/20 03:53:12;;;;;;;8.03;6.90;;;5.00;99.90;;;;;;5047586;28;20206;-87
2023/04/20 03:55:41;;;;;;;9.07;7.53;;;4.90;99.90;;;;;;5049476;28;20202;-84
2023/04/20 03:58:08;;;;;;;8.00;6.80;;;5.00;99.90;;;;;;5028537;28;20198;-86
2023/04/20 04:00:36;;;;;;;8.53;7.10;;;4.90;99.90;;;;;;5032106;28;20214;-86
2023/04/20 04:03:06;;;;;;;7.77;6.63;;;5.00;99.90;;;;;;5047143;28;20200;-86
2023/04/20 04:05:34;;;;;;;8.20;6.60;;;5.00;99.90;;;;;;5046133;28;20293;-86
2023/04/20 04:08:01;;;;;;;7.37;6.37;;;5.10;99.90;;;;;;5030880;28;20198;-86
2023/04/20 04:10:29;;;;;;;7.87;6.50;;;5.00;99.90;;;;;;5031880;28;20212;-86
2023/04/20 04:13:00;;;;;;;7.77;6.80;;;5.00;99.90;;;;;;5054380;28;20221;-86
2023/04/20 04:15:27;;;;;;;7.90;6.90;;;4.90;99.90;;;;;;5052768;28;20881;-86
2023/04/20 04:17:56;;;;;;;8.43;6.90;;;4.90;99.90;;;;;;5016430;28;20218;-86
2023/04/20 04:20:23;;;;;;;8.00;6.70;;;4.90;99.90;;;;;;5048618;28;20206;-87
2023/04/20 04:22:51;;;;;;;7.70;6.27;;;4.90;99.90;;;;;;5049400;28;20194;-87
2023/04/20 04:25:19;;;;;;;9.10;6.93;;;4.80;99.90;;;;;;5053930;28;20232;-86
2023/04/20 04:27:48;;;;;;;9.83;6.93;;;4.80;99.90;;;;;;5021224;28;20202;-86
2023/04/20 04:30:22;;;;;;;8.97;8.03;;;4.80;99.90;;;;;;5035984;28;20285;-86
2023/04/20 04:32:49;;;;;;;8.20;6.60;;;4.80;99.90;;;;;;5050323;28;20206;-86
2023/04/20 04:35:17;;;;;;;8.37;6.60;;;4.80;99.90;;;;;;5051678;28;20194;-86
2023/04/20 04:37:44;;;;;;;8.90;6.77;;;4.90;99.90;;;;;;5050191;28;20198;-87
2023/04/20 04:40:11;;;;;;;8.70;7.20;;;4.90;99.90;;;;;;5051217;28;20205;-87
2023/04/20 04:42:40;;;;;;;7.33;6.30;;;4.90;99.90;;;;;;5050787;28;20233;-87
2023/04/20 04:45:09;;;;;;;7.33;6.53;;;4.90;99.90;;;;;;5052645;28;20202;-87
2023/04/20 04:47:40;;;;;;;8.00;6.70;;;4.90;99.90;;;;;;5053963;28;20198;-87
2023/04/20 04:50:09;;;;;;;9.70;7.60;;;4.90;99.90;;;;;;5036675;28;20182;-89
2023/04/20 04:52:36;;;;;;;10.07;7.20;;;4.80;99.90;;;;;;5049045;28;20232;-89
2023/04/20 04:55:07;;;;;;;8.23;6.63;;;4.80;99.90;;;;;;5055969;28;20214;-88
2023/04/20 04:57:34;;;;;;;7.73;6.50;;;4.70;99.90;;;;;;5019377;28;20205;-88
2023/04/20 05:02:45;;;;;;;7.47;6.43;;;4.70;99.90;;;;;;5038653;28;20222;-85
2023/04/20 05:05:12;;;;;;;8.10;6.50;;;4.70;99.90;;;;;;5028800;28;20209;-86
2023/04/20 05:07:39;;;;;;;9.73;6.47;;;4.80;99.90;;;;;;5048864;28;20209;-86
2023/04/20 05:10:09;;;;;;;7.60;6.40;;;4.80;99.90;;;;;;5044818;28;20207;-86
2023/04/20 05:12:36;;;;;;;7.40;5.70;;;4.80;99.90;;;;;;5047113;28;20596;-85
2023/04/20 05:15:03;;;;;;;8.93;6.77;;;4.80;99.90;;;;;;5030263;28;20202;-87
2023/04/20 05:17:30;;;;;;;7.60;6.63;;;4.80;99.90;;;;;;5029787;28;20238;-87
2023/04/20 05:19:59;;;;;;;7.37;6.67;;;4.90;99.90;;;;;;5040950;28;20191;-88
2023/04/20 05:22:26;;;;;;;8.37;7.00;;;5.00;99.90;;;;;;5020359;28;20616;-87
2023/04/20 05:24:53;;;;;;;9.37;7.43;;;5.00;99.90;;;;;;5048506;28;20188;-90
2023/04/20 05:27:20;;;;;;;9.83;7.80;;;5.00;99.90;;;;;;5036734;28;20221;-90
2023/04/20 05:29:47;;;;;;;7.87;6.80;;;5.00;99.90;;;;;;5051544;28;20198;-86
2023/04/20 05:32:14;;;;;;;7.57;6.43;;;5.00;99.90;;;;;;5037189;28;20194;-90
2023/04/20 05:34:41;;;;;;;7.47;6.60;;;5.00;99.90;;;;;;5051282;28;20203;-88
2023/04/20 05:37:10;;;;;;;8.43;6.20;;;5.00;99.90;;;;;;5049496;28;20212;-86
2023/04/20 05:39:37;;;;;;;10.23;7.70;;;5.00;99.90;;;;;;5050782;28;20242;-91
2023/04/20 05:42:04;;;;;;;7.17;6.33;;;4.90;99.90;;;;;;5122052;22;20249;-89
2023/04/20 05:44:32;;;;;;;8.37;7.20;;;5.00;99.90;;;;;;5045800;28;20207;-90
2023/04/20 05:46:59;;;;;;;7.37;5.93;;;5.00;99.90;;;;;;5033330;28;20205;-92
2023/04/20 05:49:26;;;;;;;6.57;5.80;;;5.10;99.90;;;;;;5385453;23;20222;-90
2023/04/20 06:02:13;;;;;;;6.70;5.97;;;4.80;99.90;;;;;;5064126;28;20221;-89
2023/04/20 06:04:41;;;;;;;6.07;5.47;;;4.90;99.90;;;;;;5059324;28;20210;-89
2023/04/20 06:07:08;;;;;;;6.57;5.20;;;5.00;99.90;;;;;;5066713;28;20206;-90
2023/04/20 06:09:34;;;;;;;6.10;5.47;;;5.00;99.90;;;;;;5039707;28;20270;-91
2023/04/20 06:12:02;;;;;;;6.47;5.27;;;5.10;99.90;;;;;;5076859;28;20201;-91
2023/04/20 06:14:29;;;;;;;7.37;6.60;;;5.00;99.90;;;;;;5050461;28;20256;-92
2023/04/20 06:16:56;;;;;;;6.63;5.93;;;5.00;99.90;;;;;;5055495;28;20198;-91
2023/04/20 06:19:24;;;;;;;7.40;6.00;;;5.20;99.90;;;;;;5058015;28;20194;-90
2023/04/20 06:21:51;;;;;;;6.73;6.07;;;5.20;99.90;;;;;;5057576;28;20236;-86
2023/04/20 06:24:21;;;;;;;6.93;5.87;;;5.20;99.90;;;;;;5042243;28;20325;-90
2023/04/20 06:26:48;;;;;;;6.33;5.53;;;5.10;99.90;;;;;;5019252;28;20544;-89
2023/04/20 06:29:15;;;;;;;6.00;5.40;;;5.00;99.90;;;;;;5046100;28;20351;-90
2023/04/20 06:31:41;;;;;;;6.90;5.40;;;5.00;99.90;;;;;;5046628;28;20198;-89
2023/04/20 06:34:08;;;;;;;5.80;5.13;;;5.00;99.90;;;;;;5046339;28;20202;-89
2023/04/20 06:39:23;;;;;;;5.47;4.93;;;5.00;99.90;;;;;;5037250;28;20277;-90
2023/04/20 06:41:50;;;;;;;5.10;4.60;;;5.10;99.90;;;;;;5054227;28;20701;-90
2023/04/20 06:44:17;;;;;;;5.50;4.87;;;5.10;99.90;;;;;;5049444;28;20209;-89
2023/04/20 06:46:44;;;;;;;4.73;4.30;;;5.10;99.90;;;;;;5045787;28;20208;-90
2023/04/20 06:49:11;;;;;;;6.30;5.23;;;5.10;99.90;;;;;;5045044;28;20621;-90
2023/04/20 06:51:40;;;;;;;5.90;5.30;;;5.10;99.90;;;;;;5045213;28;20222;-91
2023/04/20 06:54:08;;;;;;;6.17;5.43;;;5.10;99.90;;;;;;5059829;28;20208;-89
2023/04/20 06:56:55;;;;;;;6.80;6.10;;;5.20;99.90;;;;;;5031542;28;20208;-90
2023/04/20 06:59:24;;;;;;;8.93;6.73;;;5.20;99.90;;;;;;5061568;28;20297;-90
2023/04/20 07:01:51;;;;;;;6.43;5.83;;;5.20;99.90;;;;;;5066988;28;20219;-90
2023/04/20 07:04:18;;;;;;;6.50;5.90;;;5.10;99.90;;;;;;5064890;28;20254;-90
2023/04/20 07:09:28;;;;;;;5.77;5.17;;;5.20;99.90;;;;;;5029542;28;20195;-90
2023/04/20 07:11:56;;;;;;;5.40;4.90;;;5.20;99.90;;;;;;5057059;28;20300;-90
2023/04/20 07:14:23;;;;;;;5.13;4.63;;;5.20;99.90;;;;;;5049429;28;20202;-90
2023/04/20 07:16:52;;;;;;;5.03;4.53;;;5.30;99.90;;;;;;5054903;28;20227;-90
2023/04/20 07:19:19;;;;;;;6.00;4.50;;;5.30;99.90;;;;;;5053238;28;20229;-89
2023/04/20 07:24:32;;;;;;;5.77;5.07;;;5.30;99.90;;;;;;5026085;28;20209;-89
2023/04/20 07:27:00;;;;;;;7.37;5.53;;;5.40;99.90;;;;;;5050525;28;20216;-90
2023/04/20 07:29:27;;;;;;;6.33;4.93;;;5.20;99.90;;;;;;5054206;28;20206;-90
2023/04/20 07:31:54;;;;;;;6.20;5.60;;;5.30;99.90;;;;;;5047583;28;20202;-90
2023/04/20 07:34:21;;;;;;;6.53;5.60;;;5.20;99.90;;;;;;5053360;28;20305;-90
2023/04/20 07:36:50;;;;;;;6.27;5.67;;;5.20;99.90;;;;;;5049296;28;20213;-90
2023/04/20 07:39:17;;;;;;;19.77;16.07;;;5.10;99.90;;;;;;5048109;28;20229;-89
2023/04/20 07:41:44;;;;;;;6.73;6.03;;;5.20;99.90;;;;;;5044468;28;20218;-90
2023/04/20 07:44:12;;;;;;;7.20;6.50;;;5.40;99.90;;;;;;5054695;28;20208;-91
2023/04/20 07:46:40;;;;;;;7.33;6.63;;;5.40;99.90;;;;;;5037671;28;20198;-90
2023/04/20 07:49:07;;;;;;;8.10;7.30;;;5.40;99.90;;;;;;5052324;28;20202;-91
2023/04/20 07:51:35;;;;;;;8.13;7.30;;;5.40;99.90;;;;;;5054770;28;20209;-90
2023/04/20 07:54:06;;;;;;;8.40;7.60;;;5.40;99.90;;;;;;5046648;28;20336;-90
2023/04/20 07:56:53;;;;;;;9.30;8.30;;;5.50;99.90;;;;;;5044384;28;20197;-89
2023/04/20 07:59:28;;;;;;;12.60;8.50;;;5.50;99.90;;;;;;5047610;28;20199;-89
2023/04/20 08:02:06;;;;;;;8.50;7.60;;;5.40;99.90;;;;;;5051114;28;20654;-90
2023/04/20 08:04:53;;;;;;;8.80;7.90;;;5.40;99.90;;;;;;5028433;28;20194;-89
2023/04/20 08:07:20;;;;;;;8.10;7.30;;;5.50;99.90;;;;;;5045076;28;20709;-90
2023/04/20 08:09:48;;;;;;;8.10;7.30;;;5.60;99.90;;;;;;5051696;28;20198;-89
2023/04/20 08:17:59;;;;;;;7.40;6.70;;;5.70;99.90;;;;;;5038359;28;20214;-88
2023/04/20 08:20:26;;;;;;;7.93;7.03;;;5.70;99.90;;;;;;5049757;28;20285;-89
2023/04/20 08:22:53;;;;;;;9.30;7.70;;;5.70;99.90;;;;;;5047846;28;20229;-88
2023/04/20 08:25:22;;;;;;;7.50;6.73;;;5.60;99.90;;;;;;5043896;28;20193;-88
2023/04/20 08:27:56;;;;;;;8.40;7.50;;;5.50;99.90;;;;;;5050052;28;20194;-89
2023/04/20 08:30:23;;;;;;;8.40;6.73;;;5.60;99.90;;;;;;5050589;28;20202;-89
2023/04/20 08:32:50;;;;;;;8.30;7.37;;;5.60;99.90;;;;;;5050328;28;20288;-88
2023/04/20 08:35:17;;;;;;;7.40;6.67;;;5.50;99.90;;;;;;5046644;28;20210;-88
2023/04/20 08:37:45;;;;;;;7.70;6.90;;;5.60;99.90;;;;;;5043931;28;20194;-88
2023/04/20 08:40:12;;;;;;;8.70;7.00;;;5.70;99.90;;;;;;5042562;28;20199;-88
2023/04/20 08:42:41;;;;;;;7.80;7.00;;;5.70;99.90;;;;;;5044707;28;20690;-88
2023/04/20 08:45:09;;;;;;;7.77;6.30;;;5.70;99.90;;;;;;5047670;28;20272;-88
2023/04/20 08:47:37;;;;;;;7.50;6.60;;;5.80;99.90;;;;;;5046356;28;20942;-88
2023/04/20 08:50:07;;;;;;;7.33;6.40;;;5.80;99.90;;;;;;5031997;28;20609;-88
2023/04/20 08:52:34;;;;;;;7.87;6.87;;;5.80;99.90;;;;;;5049710;28;20241;-88
2023/04/20 09:00:24;;;;;;;9.60;7.37;;;5.90;99.90;;;;;;5042542;28;20237;-88
2023/04/20 09:02:53;;;;;;;7.77;6.97;;;6.00;99.90;;;;;;5049539;28;20224;-91
2023/04/20 09:10:50;;;;;;;7.87;6.67;;;6.10;98.80;;;;;;5032142;28;20198;-91
2023/04/20 09:16:11;;;;;;;6.15;5.55;;;6.30;99.00;;;;;;5053975;28;20211;-91
2023/04/20 09:18:39;;;;;;;6.47;5.83;;;6.20;98.40;;;;;;5039276;28;20218;-91
2023/04/20 09:21:10;;;;;;;6.50;5.70;;;6.10;98.80;;;;;;5054437;28;20233;-91
2023/04/20 09:23:37;;;;;;;6.80;6.10;;;6.10;98.70;;;;;;5060121;28;20236;-89
2023/04/20 09:31:34;;;;;;;7.05;6.13;;;6.20;98.90;;;;;;5037909;28;20240;-91
2023/04/20 09:34:03;;;;;;;5.82;5.22;;;6.40;99.30;;;;;;5054234;28;20206;-91
2023/04/20 09:36:37;;;;;;;6.65;5.95;;;6.40;98.00;;;;;;5049628;28;20206;-91
2023/04/20 09:41:48;;;;;;;6.65;5.95;;;6.50;98.50;;;;;;5050355;28;20202;-91
2023/04/20 09:46:59;;;;;;;6.60;6.00;;;6.50;98.10;;;;;;5038243;28;20254;-91
2023/04/20 09:52:28;;;;;;;7.22;6.38;;;6.80;97.40;;;;;;5057847;28;20212;-91
2023/04/20 09:54:56;;;;;;;7.25;6.38;;;6.80;97.30;;;;;;5055520;28;20190;-91
2023/04/20 09:57:25;;;;;;;7.70;6.85;;;6.90;97.70;;;;;;5051514;28;20212;-91
2023/04/20 10:02:59;;;;;;;6.85;6.15;;;6.80;97.40;;;;;;5049486;28;20229;-90
2023/04/20 10:08:14;;;;;;;7.03;5.85;;;6.60;97.50;;;;;;5045831;28;20204;-91
2023/04/20 10:10:46;;;;;;;7.10;6.40;;;6.70;97.60;;;;;;5054594;28;20198;-90
2023/04/20 10:13:14;;;;;;;9.07;7.82;;;6.80;97.50;;;;;;5044314;28;20204;-91
2023/04/20 10:16:02;;;;;;;7.70;6.72;;;6.80;97.70;;;;;;5053238;28;20654;-91
2023/04/20 10:18:29;;;;;;;7.43;6.60;;;6.70;97.20;;;;;;5052806;28;20754;-90
2023/04/20 10:21:08;;;;;;;10.90;8.48;;;6.70;97.20;;;;;;5054237;28;20202;-91
2023/04/20 10:23:35;;;;;;;8.90;8.00;;;6.70;97.70;;;;;;5058830;28;20238;-91
2023/04/20 10:28:43;;;;;;;8.38;7.57;;;6.70;97.60;;;;;;5057616;28;20193;-91
2023/04/20 10:36:37;;;;;;;8.35;7.45;;;6.80;98.10;;;;;;5036401;28;20202;-91
2023/04/20 10:39:46;;;;;;;8.43;7.45;;;6.80;97.60;;;;;;5034477;28;20436;-90
2023/04/20 10:42:13;;;;;;;8.50;6.95;;;6.90;97.60;;;;;;5056701;28;20204;-90
2023/04/20 10:44:48;;;;;;;7.35;6.63;;;6.90;97.60;;;;;;5053523;28;20216;-90
2023/04/20 10:47:16;;;;;;;7.63;6.93;;;6.80;97.30;;;;;;5056570;28;20267;-90
2023/04/20 10:49:43;;;;;;;7.07;6.38;;;6.90;98.00;;;;;;5053295;28;20196;-90
2023/04/20 10:52:10;;;;;;;7.63;6.93;;;7.00;96.90;;;;;;5054064;28;20208;-91
2023/04/20 10:54:38;;;;;;;7.72;6.97;;;7.10;97.00;;;;;;5052783;28;20209;-91
2023/04/20 10:57:06;;;;;;;7.43;6.60;;;7.10;96.50;;;;;;5060392;28;20231;-91
2023/04/20 10:59:36;;;;;;;7.22;6.50;;;6.90;96.70;;;;;;5059533;28;20203;-91
2023/04/20 11:02:09;;;;;;;6.90;6.28;;;7.00;97.10;;;;;;5058796;28;20231;-91
2023/04/20 11:05:01;;;;;;;7.43;6.72;;;7.00;97.30;;;;;;5060284;28;20202;-91
2023/04/20 11:07:28;;;;;;;7.47;6.72;;;7.10;97.20;;;;;;5056706;28;20563;-91
2023/04/20 11:09:56;;;;;;;7.07;6.47;;;7.00;97.00;;;;;;5041140;28;20198;-90
2023/04/20 11:12:23;;;;;;;7.15;6.45;;;6.90;97.20;;;;;;5059334;28;20210;-90
2023/04/20 11:14:54;;;;;;;8.35;6.90;;;7.00;97.30;;;;;;5051473;28;20198;-90
2023/04/20 11:22:58;;;;;;;7.03;6.32;;;7.10;97.40;;;;;;5042566;28;20283;-90
2023/04/20 11:33:32;;;;;;;6.82;6.13;;;7.30;97.10;;;;;;5027562;28;20467;-92
2023/04/20 11:38:43;;;;;;;6.00;5.40;;;7.30;97.00;;;;;;5045653;28;20209;-91
2023/04/20 11:41:10;;;;;;;6.03;5.53;;;7.10;97.00;;;;;;5035107;28;20245;-91
2023/04/20 11:43:37;;;;;;;5.82;5.32;;;7.10;97.00;;;;;;5036810;28;20233;-91
2023/04/20 11:46:17;;;;;;;5.80;5.30;;;7.20;96.80;;;;;;5046306;28;20207;-89
2023/04/20 11:48:45;;;;;;;5.40;4.90;;;7.30;96.70;;;;;;5038082;28;20202;-89
2023/04/20 11:53:54;;;;;;;6.65;4.43;;;8.00;96.20;;;;;;5042268;28;20237;-89
2023/04/20 11:56:21;;;;;;;5.10;4.60;;;8.30;94.00;;;;;;5039705;28;20217;-89
2023/04/20 12:01:29;;;;;;;5.40;4.90;;;8.30;94.00;;;;;;5041836;28;20202;-88
2023/04/20 12:03:56;;;;;;;4.97;4.47;;;8.10;94.40;;;;;;5053525;28;20251;-90
2023/04/20 12:06:26;;;;;;;5.68;5.10;;;7.90;95.10;;;;;;5055248;28;20198;-90
2023/04/20 12:09:12;;;;;;;5.43;4.78;;;7.70;95.60;;;;;;5040448;28;20211;-89
2023/04/20 12:11:39;;;;;;;6.18;5.57;;;7.80;95.60;;;;;;5052487;28;20233;-89
2023/04/20 12:14:07;;;;;;;7.70;5.10;;;7.80;95.70;;;;;;5046656;28;20282;-89
2023/04/20 12:16:34;;;;;;;5.78;5.13;;;8.00;95.70;;;;;;5037372;28;20264;-89
2023/04/20 12:19:01;;;;;;;5.90;4.88;;;8.20;94.30;;;;;;5039916;28;20716;-89
2023/04/20 12:21:30;;;;;;;5.38;4.88;;;8.00;94.60;;;;;;5045513;28;20821;-88
2023/04/20 12:24:16;;;;;;;6.15;5.55;;;7.60;95.60;;;;;;5047422;28;20237;-89
2023/04/20 12:26:43;;;;;;;6.20;5.60;;;7.60;96.30;;;;;;5051589;28;20254;-89
2023/04/20 12:29:10;;;;;;;6.43;5.82;;;7.60;96.40;;;;;;5046847;28;20214;-90
2023/04/20 12:31:37;;;;;;;7.10;6.40;;;7.70;95.90;;;;;;5050066;28;20207;-91
2023/04/20 12:34:25;;;;;;;6.65;5.78;;;7.70;96.70;;;;;;5043652;28;20210;-91
2023/04/20 12:39:38;;;;;;;7.03;6.32;;;7.60;96.00;;;;;;5043573;28;20256;-92
2023/04/20 12:42:05;;;;;;;6.20;5.60;;;7.70;95.80;;;;;;5055064;28;20198;-91
2023/04/20 12:44:32;;;;;;;6.82;6.13;;;7.80;95.70;;;;;;5051741;28;20627;-91
2023/04/20 12:46:59;;;;;;;6.25;5.65;;;8.00;95.70;;;;;;5038012;28;20506;-91
2023/04/20 12:49:26;;;;;;;6.60;5.93;;;8.10;95.70;;;;;;5048681;28;20200;-91
2023/04/20 12:51:54;;;;;;;6.40;5.68;;;8.10;95.60;;;;;;5049578;28;20193;-91
2023/04/20 12:54:21;;;;;;;6.88;6.28;;;8.00;95.70;;;;;;5028547;28;20198;-91
2023/04/20 12:56:49;;;;;;;6.63;5.93;;;7.90;95.70;;;;;;5055233;28;20198;-91
2023/04/20 12:59:16;;;;;;;6.65;6.05;;;7.90;95.90;;;;;;5043612;28;20197;-90
2023/04/20 13:01:43;;;;;;;6.90;6.20;;;7.80;96.20;;;;;;5031012;28;20609;-91
2023/04/20 13:04:10;;;;;;;8.45;6.85;;;7.80;96.40;;;;;;5039550;28;20222;-91
2023/04/20 13:06:37;;;;;;;7.82;7.03;;;7.70;96.10;;;;;;5048039;28;20217;-91
2023/04/20 13:09:06;;;;;;;7.40;6.70;;;7.70;96.90;;;;;;5050052;28;20212;-91
2023/04/20 13:11:32;;;;;;;6.65;6.05;;;7.80;96.40;;;;;;5049309;28;20198;-92
2023/04/20 13:13:59;;;;;;;8.23;6.45;;;7.80;95.70;;;;;;5044741;28;20202;-91
2023/04/20 13:16:28;;;;;;;6.63;5.93;;;7.80;96.10;;;;;;5037406;28;20190;-91
2023/04/20 13:18:54;;;;;;;7.43;6.45;;;7.70;95.70;;;;;;5037206;28;20240;-90
2023/04/20 13:21:22;;;;;;;7.38;6.55;;;7.90;96.10;;;;;;5041787;28;20226;-90
2023/04/20 13:23:48;;;;;;;7.35;6.65;;;7.90;96.00;;;;;;5046022;28;20223;-89
2023/04/20 13:26:24;;;;;;;7.32;6.63;;;8.10;96.50;;;;;;5047317;28;20255;-90
2023/04/20 13:28:52;;;;;;;7.93;6.70;;;8.20;95.70;;;;;;5039872;28;20255;-89
2023/04/20 13:31:19;;;;;;;6.95;6.30;;;8.30;95.80;;;;;;5046486;28;20675;-90
2023/04/20 13:33:46;;;;;;;6.97;6.25;;;8.20;95.70;;;;;;5047214;28;20198;-90
2023/04/20 13:36:13;;;;;;;7.82;7.03;;;8.30;95.80;;;;;;5055268;28;20205;-90
2023/04/20 13:38:40;;;;;;;7.88;7.07;;;8.40;95.70;;;;;;5049288;28;20206;-90
2023/04/20 13:41:07;;;;;;;7.70;7.00;;;8.40;95.80;;;;;;5037386;28;20634;-90
2023/04/20 13:43:35;;;;;;;7.80;6.95;;;8.40;95.80;;;;;;5030650;28;20248;-89
2023/04/20 13:46:02;;;;;;;7.90;7.13;;;8.40;95.80;;;;;;5051802;28;20201;-91
2023/04/20 13:48:29;;;;;;;9.15;7.40;;;8.40;95.80;;;;;;5054385;28;20266;-91
2023/04/20 13:50:56;;;;;;;7.70;6.90;;;8.20;95.70;;;;;;5053618;28;20247;-91
2023/04/20 13:53:23;;;;;;;8.85;7.40;;;8.40;96.00;;;;;;5040986;28;20202;-90
2023/04/20 13:55:50;;;;;;;8.10;7.07;;;8.50;95.80;;;;;;5051311;28;20198;-89
2023/04/20 14:03:42;;;;;;;12.15;8.00;;;8.50;95.80;;;;;;5061044;28;20234;-91
2023/04/20 14:06:09;;;;;;;11.05;8.73;;;8.50;96.80;;;;;;5051370;28;20229;-90
2023/04/20 14:11:06;;;;;;;9.68;8.68;;;8.40;96.60;;;;;;5237258;22;20763;-89
2023/04/20 14:13:33;;;;;;;10.02;8.90;;;8.30;96.80;;;;;;5053076;28;20206;-93
2023/04/20 14:16:01;;;;;;;12.63;10.05;;;8.30;97.20;;;;;;5055746;28;20202;-93
2023/04/20 14:18:29;;;;;;;11.93;10.05;;;8.40;97.70;;;;;;4998702;28;20222;-93
2023/04/20 14:23:37;;;;;;;12.80;10.00;;;8.50;97.10;;;;;;5015246;28;20238;-92
2023/04/20 14:26:04;;;;;;;11.38;9.68;;;8.50;97.00;;;;;;5037812;28;20214;-93
2023/04/20 14:28:31;;;;;;;12.65;10.23;;;8.50;96.80;;;;;;5040036;28;20182;-92
2023/04/20 14:30:59;;;;;;;13.85;10.88;;;8.50;97.20;;;;;;5031059;28;20221;-93
2023/04/20 14:36:31;;;;;;;14.00;10.82;;;8.60;96.90;;;;;;5042792;28;20210;-92
2023/04/20 14:38:58;;;;;;;13.80;11.38;;;8.60;96.80;;;;;;5044946;28;20199;-91
2023/04/20 14:41:25;;;;;;;13.95;10.98;;;8.50;96.70;;;;;;5285833;22;20260;-91
2023/04/20 14:46:32;;;;;;;16.38;11.63;;;8.50;97.10;;;;;;5038811;28;20212;-91
2023/04/20 14:52:06;;;;;;;14.07;11.55;;;8.50;97.30;;;;;;5046981;28;20286;-91
2023/04/20 14:54:34;;;;;;;15.38;11.23;;;8.60;96.90;;;;;;5058522;28;20227;-91